CheckWX is a tool to help pilots better visualize weather data.  It is not intended as a substitute for an official pre-flight weather briefing.

15:36:22 UTC

CYLJ METAR
Meadow Lake Airport
Meadow Lake, Canada
Current

36 mins ago

CYLJ 261500Z 00000KT 5SM BR FEW003 SCT025 SCT220 07/07 A3016 RMK SF2SC1CI1 CI TR SLP229
Observed
May-26 @ 15:00 UTC
Visibility
5 SM
Flight Rules
MVFR
Conditions
Mist
Cloud Levels
  • Few at 300' AGL
  • Scattered at 2,500' AGL
  • Scattered at 22,000' AGL
Temperature
C / 45°F
Dewpoint
C / 45°F
Humidity
100%
Altimeter
30.16" Hg
Pressure
1021.32 hPa
Previous

44 mins ago

CYLJ 261452Z VRB02KT 3SM BR SCT003 07/07 A3016 RMK SF4 VIS SE-SW 11/2 SLP228
Observed
May-26 @ 14:52 UTC
Wind
  • Variable at 2 KTS
Visibility
3 SM
Flight Rules
MVFR
Conditions
Mist
Cloud Levels
  • Scattered at 300' AGL
Temperature
C / 45°F
Dewpoint
C / 45°F
Humidity
100%
Altimeter
30.16" Hg
Pressure
1021.32 hPa
Previous

60 mins ago

CYLJ 261436Z VRB02KT 2SM BR BKN003 06/06 A3016 RMK FG6SF1 VIS SE-SW 1 SLP228
Observed
May-26 @ 14:36 UTC
Wind
  • Variable at 2 KTS
Visibility
2 SM
Flight Rules
LIFR
Conditions
Mist
Cloud Levels
  • Broken at 300' AGL
Temperature
C / 43°F
Dewpoint
C / 43°F
Humidity
100%
Altimeter
30.16" Hg
Pressure
1021.32 hPa